createdAt,value
2018-12-09T00:02:16.256Z,75.67
2018-12-09T00:04:48.486Z,75.37
2018-12-09T00:07:20.734Z,75.69
2018-12-09T00:09:51.028Z,76.04
2018-12-09T00:12:21.321Z,75.92
2018-12-09T00:14:51.539Z,75.52
2018-12-09T00:17:21.737Z,75.40
2018-12-09T00:19:51.960Z,75.74
2018-12-09T00:22:22.096Z,75.69
2018-12-09T00:24:52.234Z,76.16
2018-12-09T00:27:22.425Z,76.23
2018-12-09T00:29:52.562Z,76.44
2018-12-09T00:32:22.738Z,75.63
2018-12-09T00:34:53.087Z,75.27
2018-12-09T00:37:23.241Z,75.65
2018-12-09T00:39:55.319Z,75.92
2018-12-09T00:42:25.532Z,75.18
2018-12-09T00:44:55.629Z,74.94
2018-12-09T00:47:25.778Z,74.96
2018-12-09T00:49:55.934Z,74.46
2018-12-09T00:52:26.086Z,74.68
2018-12-09T00:54:56.399Z,74.24
2018-12-09T00:57:26.746Z,74.30
2018-12-09T00:59:56.891Z,74.59
2018-12-09T01:02:27.045Z,74.73
2018-12-09T01:04:57.134Z,74.76
2018-12-09T01:07:27.370Z,74.66
2018-12-09T01:09:57.643Z,74.24
2018-12-09T01:12:27.767Z,74.68
2018-12-09T01:14:57.966Z,75.24
2018-12-09T01:17:28.131Z,75.44
2018-12-09T01:19:58.374Z,75.30
2018-12-09T01:22:28.525Z,75.73
2018-12-09T01:24:58.726Z,76.02
2018-12-09T01:27:28.895Z,76.25
2018-12-09T01:30:00.008Z,76.10
2018-12-09T01:32:30.265Z,75.69
2018-12-09T01:35:00.466Z,76.01
2018-12-09T01:37:30.526Z,75.73
2018-12-09T01:40:00.608Z,75.48
2018-12-09T01:42:30.743Z,75.32
2018-12-09T01:45:00.887Z,75.07
2018-12-09T01:47:31.130Z,74.93
2018-12-09T01:50:01.321Z,75.14
2018-12-09T01:52:31.539Z,74.46
2018-12-09T01:55:01.643Z,74.58
2018-12-09T01:57:31.868Z,74.52
2018-12-09T02:00:02.137Z,74.23
2018-12-09T02:02:33.279Z,74.67
2018-12-09T02:05:03.398Z,74.37
2018-12-09T02:07:33.644Z,74.32
2018-12-09T02:10:03.721Z,73.70
2018-12-09T02:12:33.875Z,73.86
2018-12-09T02:15:03.939Z,73.07
2018-12-09T02:17:35.174Z,73.03
2018-12-09T02:20:05.603Z,73.07
2018-12-09T02:22:35.737Z,72.75
2018-12-09T02:25:05.883Z,72.84
2018-12-09T02:27:36.061Z,72.34
2018-12-09T02:30:06.495Z,72.34
2018-12-09T02:32:36.653Z,72.54
2018-12-09T02:35:06.838Z,72.39
2018-12-09T02:37:36.867Z,71.96
2018-12-09T02:40:07.061Z,72.17
2018-12-09T02:42:37.115Z,72.02
2018-12-09T02:45:07.301Z,71.19
2018-12-09T02:47:37.484Z,71.65
2018-12-09T02:50:07.614Z,71.14
2018-12-09T02:52:37.679Z,71.07
2018-12-09T02:55:07.852Z,71.49
2018-12-09T02:57:37.934Z,71.58
2018-12-09T03:00:08.139Z,71.21
2018-12-09T03:02:39.327Z,71.29
2018-12-09T03:05:09.420Z,71.49
2018-12-09T03:07:39.577Z,71.24
2018-12-09T03:10:09.655Z,70.83
2018-12-09T03:12:41.467Z,71.50
2018-12-09T03:15:11.726Z,72.42
2018-12-09T03:17:42.886Z,72.65
2018-12-09T03:20:13.024Z,73.16
2018-12-09T03:22:43.146Z,75.03
2018-12-09T03:25:13.310Z,76.56
2018-12-09T03:27:43.466Z,78.04
2018-12-09T03:30:13.556Z,78.38
2018-12-09T03:32:43.742Z,78.12
2018-12-09T03:35:13.970Z,78.30
2018-12-09T03:37:44.117Z,78.35
2018-12-09T03:40:14.333Z,78.08
2018-12-09T03:42:44.533Z,77.92
2018-12-09T03:45:14.733Z,77.79
2018-12-09T03:47:44.911Z,77.67
2018-12-09T03:50:15.343Z,78.71
2018-12-09T03:52:45.481Z,79.31
2018-12-09T03:55:15.739Z,79.44
2018-12-09T03:57:45.927Z,81.55
2018-12-09T04:00:17.293Z,82.73
2018-12-09T04:02:47.405Z,84.02
2018-12-09T04:05:17.524Z,85.40
2018-12-09T04:07:47.680Z,85.58
2018-12-09T04:10:17.841Z,85.19
2018-12-09T04:12:48.015Z,83.39
2018-12-09T04:15:18.176Z,81.78
2018-12-09T04:17:48.328Z,81.12
2018-12-09T04:20:18.422Z,82.17
2018-12-09T04:22:48.509Z,81.88
2018-12-09T04:25:18.616Z,82.73
2018-12-09T04:27:48.739Z,82.33
2018-12-09T04:30:18.898Z,82.17
2018-12-09T04:32:49.021Z,82.75
2018-12-09T04:35:19.162Z,82.51
2018-12-09T04:37:49.235Z,83.30
2018-12-09T04:40:19.362Z,83.39
2018-12-09T04:42:49.675Z,82.87
2018-12-09T04:45:19.809Z,82.92
2018-12-09T04:47:49.902Z,82.78
2018-12-09T04:50:20.025Z,82.75
2018-12-09T04:52:50.480Z,83.13
2018-12-09T04:55:20.567Z,83.06
2018-12-09T04:57:50.673Z,83.40
2018-12-09T05:00:32.062Z,83.29
2018-12-09T05:03:02.210Z,82.55
2018-12-09T05:05:32.369Z,82.71
2018-12-09T05:08:02.491Z,82.45
2018-12-09T05:10:32.762Z,82.15
2018-12-09T05:13:03.777Z,83.19
2018-12-09T05:15:33.998Z,83.80
2018-12-09T05:18:05.150Z,83.52
2018-12-09T05:20:35.255Z,83.40
2018-12-09T05:23:05.610Z,82.27
2018-12-09T05:25:35.718Z,82.24
2018-12-09T05:28:05.872Z,81.24
2018-12-09T05:30:35.951Z,80.68
2018-12-09T05:33:06.503Z,80.98
2018-12-09T05:35:36.646Z,81.02
2018-12-09T05:38:06.742Z,81.06
2018-12-09T05:40:36.953Z,80.92
2018-12-09T05:43:07.047Z,81.09
2018-12-09T05:45:37.150Z,80.71
2018-12-09T05:48:07.260Z,80.92
2018-12-09T05:50:37.459Z,81.44
2018-12-09T05:53:07.754Z,81.52
2018-12-09T05:55:44.541Z,81.09
2018-12-09T05:58:16.656Z,80.84
2018-12-09T06:00:46.880Z,80.56
2018-12-09T06:03:20.444Z,80.33
2018-12-09T06:05:50.615Z,80.51
2018-12-09T06:08:20.874Z,79.72
2018-12-09T06:10:51.129Z,80.36
2018-12-09T06:13:21.411Z,80.12
2018-12-09T06:15:51.728Z,80.23
2018-12-09T06:18:23.081Z,80.78
2018-12-09T06:20:55.497Z,80.55
2018-12-09T06:23:25.886Z,80.78
2018-12-09T06:25:56.192Z,80.89
2018-12-09T06:28:26.430Z,81.32
2018-12-09T06:30:56.666Z,81.72
2018-12-09T06:33:26.884Z,82.07
2018-12-09T06:35:57.030Z,82.69
2018-12-09T06:38:27.169Z,82.20
2018-12-09T06:40:57.398Z,82.41
2018-12-09T06:43:27.650Z,82.53
2018-12-09T06:45:58.328Z,81.86
2018-12-09T06:48:28.494Z,82.24
2018-12-09T06:50:58.623Z,82.24
2018-12-09T06:53:28.831Z,81.99
2018-12-09T06:55:59.929Z,81.68
2018-12-09T06:58:30.092Z,81.86
2018-12-09T07:01:00.194Z,81.72
2018-12-09T07:03:30.370Z,82.01
2018-12-09T07:06:00.462Z,81.72
2018-12-09T07:08:31.061Z,82.12
2018-12-09T07:11:01.222Z,81.60
2018-12-09T07:13:31.268Z,81.36
2018-12-09T07:16:01.425Z,81.07
2018-12-09T07:18:31.481Z,80.84
2018-12-09T07:21:01.553Z,81.27
2018-12-09T07:23:31.607Z,80.20
2018-12-09T07:26:02.012Z,79.48
2018-12-09T07:28:32.835Z,78.99
2018-12-09T07:47:40.678Z,77.40
2018-12-09T07:50:11.060Z,77.74
2018-12-09T07:52:41.905Z,77.27
2018-12-09T07:55:12.398Z,79.08
2018-12-09T07:57:42.767Z,79.09
2018-12-09T08:00:13.009Z,78.61
2018-12-09T08:02:47.960Z,78.99
2018-12-09T08:05:24.692Z,78.73
2018-12-09T08:08:02.399Z,77.54
2018-12-09T08:10:34.376Z,77.27
2018-12-09T08:13:18.153Z,77.30
2018-12-09T08:15:48.504Z,76.00
2018-12-09T08:18:27.816Z,75.43
2018-12-09T08:21:02.183Z,75.98
2018-12-09T08:23:32.443Z,76.03
2018-12-09T08:26:02.717Z,76.34
2018-12-09T08:28:32.863Z,75.73
2018-12-09T08:31:02.929Z,76.15
2018-12-09T08:33:33.204Z,76.45
2018-12-09T08:36:03.313Z,76.50
2018-12-09T08:38:33.502Z,76.14
2018-12-09T08:41:03.832Z,76.40
2018-12-09T08:43:34.097Z,75.97
2018-12-09T08:46:04.325Z,75.72
2018-12-09T08:48:34.597Z,75.31
2018-12-09T08:51:04.908Z,75.32
2018-12-09T08:53:35.161Z,75.04
2018-12-09T08:56:05.634Z,75.19
2018-12-09T08:58:35.961Z,75.25
2018-12-09T09:01:06.265Z,75.85
2018-12-09T09:03:36.531Z,75.40
2018-12-09T09:06:07.066Z,75.68
2018-12-09T09:08:37.265Z,75.09
2018-12-09T09:11:07.547Z,75.65
2018-12-09T09:13:38.411Z,76.06
2018-12-09T09:16:08.723Z,76.88
2018-12-09T09:18:39.526Z,77.15
2018-12-09T09:21:09.686Z,77.96
2018-12-09T09:23:39.852Z,77.97
2018-12-09T09:26:10.062Z,78.28
2018-12-09T09:28:40.322Z,77.14
2018-12-09T09:31:10.634Z,77.64
2018-12-09T09:33:40.737Z,76.88
2018-12-09T09:36:10.793Z,76.97
2018-12-09T09:38:40.878Z,76.78
2018-12-09T09:41:11.018Z,76.50
2018-12-09T09:43:41.090Z,75.99
2018-12-09T09:46:11.251Z,76.26
2018-12-09T09:48:41.521Z,75.01
2018-12-09T09:51:12.336Z,75.57
2018-12-09T09:53:42.453Z,74.80
2018-12-09T09:56:13.366Z,75.82
2018-12-09T09:58:43.617Z,76.00
2018-12-09T10:01:14.367Z,75.69
2018-12-09T10:03:44.443Z,75.84
2018-12-09T10:06:14.574Z,75.10
2018-12-09T10:08:44.771Z,75.95
2018-12-09T10:11:14.958Z,75.22
2018-12-09T10:13:45.437Z,75.97
2018-12-09T10:16:15.623Z,82.29
2018-12-09T10:18:45.980Z,82.87
2018-12-09T10:21:16.319Z,82.74
2018-12-09T10:23:46.629Z,81.27
2018-12-09T10:26:16.731Z,79.96
2018-12-09T10:28:46.972Z,80.97
2018-12-09T10:31:17.239Z,81.51
2018-12-09T10:33:47.374Z,82.20
2018-12-09T10:36:17.520Z,83.36
2018-12-09T10:38:54.639Z,83.30
2018-12-09T10:41:24.849Z,84.02
2018-12-09T10:43:55.252Z,83.99
2018-12-09T10:46:25.764Z,85.23
2018-12-09T10:48:56.237Z,86.45
2018-12-09T10:51:26.710Z,86.20
2018-12-09T10:53:57.240Z,86.36
2018-12-09T10:56:31.724Z,86.00
2018-12-09T10:59:02.065Z,85.15
2018-12-09T11:01:40.620Z,88.17
2018-12-09T11:04:11.364Z,89.39
2018-12-09T11:06:45.083Z,89.09
2018-12-09T11:09:17.848Z,89.07
2018-12-09T11:11:49.248Z,88.46
2018-12-09T11:14:19.771Z,88.12
2018-12-09T11:16:50.710Z,87.48
2018-12-09T11:19:21.066Z,86.89
2018-12-09T11:21:52.237Z,87.16
2018-12-09T11:24:22.611Z,86.58
2018-12-09T11:26:58.739Z,86.97
2018-12-09T11:29:29.283Z,87.22
2018-12-09T11:31:59.593Z,86.91
2018-12-09T11:34:29.876Z,87.41
2018-12-09T11:37:00.310Z,87.29
2018-12-09T11:39:30.730Z,86.98
2018-12-09T11:42:01.106Z,87.39
2018-12-09T11:44:32.325Z,86.81
2018-12-09T11:47:03.003Z,86.68
2018-12-09T11:49:33.531Z,87.24
2018-12-09T11:52:04.296Z,86.86
2018-12-09T11:57:28.554Z,86.36
2018-12-09T12:00:03.355Z,85.99
2018-12-09T12:06:54.628Z,85.05
2018-12-09T12:12:10.679Z,83.28
2018-12-09T12:14:41.960Z,83.44
2018-12-09T12:17:29.639Z,83.05
2018-12-09T12:20:01.425Z,82.45
2018-12-09T12:22:32.943Z,83.28
2018-12-09T12:25:12.799Z,83.08
2018-12-09T12:27:43.018Z,82.68
2018-12-09T12:30:39.298Z,80.95
2018-12-09T12:33:11.416Z,80.69
2018-12-09T12:35:53.066Z,80.74
2018-12-09T12:38:23.263Z,83.03
2018-12-09T12:41:00.185Z,84.88
2018-12-09T12:43:31.206Z,85.40
2018-12-09T12:46:16.404Z,86.31
2018-12-09T12:48:47.189Z,85.30
2018-12-09T12:51:19.627Z,85.45
2018-12-09T12:53:49.901Z,86.74
2018-12-09T12:56:20.253Z,86.65
2018-12-09T12:58:51.765Z,86.83
2018-12-09T13:01:22.586Z,86.32
2018-12-09T13:03:53.068Z,84.99
2018-12-09T13:06:23.976Z,83.57
2018-12-09T13:08:54.192Z,84.16
2018-12-09T13:11:24.753Z,84.07
2018-12-09T13:13:55.181Z,84.70
2018-12-09T13:16:25.638Z,84.73
2018-12-09T13:18:56.109Z,85.27
2018-12-09T13:21:27.605Z,85.24
2018-12-09T13:23:58.564Z,84.10
2018-12-09T13:26:28.738Z,83.99
2018-12-09T13:28:59.087Z,84.15
2018-12-09T13:31:30.316Z,84.20
2018-12-09T13:34:00.679Z,84.46
2018-12-09T13:36:30.986Z,85.29
2018-12-09T13:39:02.105Z,85.35
2018-12-09T13:41:33.738Z,84.05
2018-12-09T13:44:05.116Z,84.34
2018-12-09T13:46:35.524Z,83.67
2018-12-09T13:49:05.859Z,83.71
2018-12-09T13:51:36.625Z,82.87
2018-12-09T13:54:12.906Z,82.64
2018-12-09T13:56:48.171Z,82.52
2018-12-09T13:59:18.389Z,83.28
2018-12-09T14:01:49.966Z,83.49
2018-12-09T14:04:20.428Z,83.95
2018-12-09T14:06:50.891Z,84.07
2018-12-09T14:09:21.205Z,83.65
2018-12-09T14:11:51.374Z,83.45
2018-12-09T14:14:21.657Z,83.36
2018-12-09T14:16:53.132Z,82.90
2018-12-09T14:19:25.728Z,83.13
2018-12-09T14:21:58.226Z,81.88
2018-12-09T14:24:28.613Z,80.87
2018-12-09T14:26:58.838Z,79.81
2018-12-09T14:29:29.064Z,80.25
2018-12-09T14:31:59.939Z,79.95
2018-12-09T14:34:30.183Z,80.69
2018-12-09T14:37:01.343Z,82.07
2018-12-09T14:39:35.657Z,82.63
2018-12-09T14:42:07.689Z,82.64
2018-12-09T14:44:38.904Z,82.81
2018-12-09T14:47:11.218Z,82.84
2018-12-09T14:49:55.007Z,82.70
2018-12-09T14:52:26.689Z,82.44
2018-12-09T14:54:59.170Z,82.68
2018-12-09T14:57:29.611Z,82.61
2018-12-09T15:00:00.427Z,82.88
2018-12-09T15:02:30.998Z,82.95
2018-12-09T15:05:02.658Z,83.59
2018-12-09T15:07:33.046Z,83.74
2018-12-09T15:10:31.548Z,83.42
2018-12-09T15:13:03.041Z,83.49
2018-12-09T15:15:33.605Z,83.34
2018-12-09T15:18:07.502Z,83.86
2018-12-09T15:20:38.380Z,83.86
2018-12-09T15:23:08.781Z,83.71
2018-12-09T15:25:40.123Z,84.07
2018-12-09T15:28:20.714Z,83.99
2018-12-09T15:30:51.047Z,84.06
2018-12-09T15:40:11.683Z,84.23
2018-12-09T16:16:06.501Z,83.11
2018-12-09T16:18:54.941Z,82.82
2018-12-09T16:21:30.191Z,83.08
2018-12-09T16:24:02.065Z,83.16
2018-12-09T16:26:32.235Z,81.58
2018-12-09T16:29:02.592Z,82.16
2018-12-09T16:31:32.731Z,82.55
2018-12-09T16:34:06.362Z,82.63
2018-12-09T16:36:37.438Z,82.15
2018-12-09T16:39:08.323Z,82.38
2018-12-09T16:41:39.556Z,82.53
2018-12-09T16:44:09.771Z,82.04
2018-12-09T16:46:40.782Z,82.63
2018-12-09T16:52:15.254Z,82.64
2018-12-09T16:54:45.741Z,82.56
2018-12-09T16:57:16.193Z,81.96
2018-12-09T16:59:47.720Z,82.89
2018-12-09T17:02:22.626Z,82.43
2018-12-09T17:04:53.038Z,82.43
2018-12-09T17:07:24.143Z,82.58
2018-12-09T17:09:54.217Z,82.52
2018-12-09T17:12:24.435Z,81.69
2018-12-09T17:14:54.590Z,81.99
2018-12-09T17:17:25.020Z,82.26
2018-12-09T17:19:55.445Z,81.52
2018-12-09T17:22:26.525Z,81.41
2018-12-09T17:24:56.980Z,81.45
2018-12-09T17:27:28.242Z,81.55
2018-12-09T17:29:58.599Z,81.45
2018-12-09T17:32:29.333Z,81.97
2018-12-09T17:34:59.925Z,81.99
2018-12-09T17:37:30.479Z,82.41
2018-12-09T17:40:02.185Z,84.03
2018-12-09T17:42:34.187Z,79.59
2018-12-09T17:45:04.554Z,81.56
2018-12-09T17:47:34.759Z,81.01
2018-12-09T17:50:04.937Z,81.44
2018-12-09T17:52:35.114Z,80.85
2018-12-09T17:55:05.229Z,80.98
2018-12-09T17:57:35.362Z,80.49
2018-12-09T18:00:06.301Z,80.74
2018-12-09T18:02:36.697Z,80.82
2018-12-09T18:05:07.038Z,80.50
2018-12-09T18:07:37.249Z,79.88
2018-12-09T18:10:07.418Z,80.07
2018-12-09T18:12:37.546Z,79.99
2018-12-09T18:15:11.668Z,80.07
2018-12-09T18:17:41.776Z,79.99
2018-12-09T18:20:11.960Z,80.17
2018-12-09T18:22:41.998Z,80.83
2018-12-09T18:25:12.217Z,80.30
2018-12-09T18:27:43.451Z,80.56
2018-12-09T18:30:13.751Z,80.76
2018-12-09T18:32:43.889Z,81.27
2018-12-09T18:35:14.167Z,81.17
2018-12-09T18:37:44.332Z,80.66
2018-12-09T18:40:14.474Z,81.18
2018-12-09T18:42:44.650Z,81.51
2018-12-09T18:45:14.758Z,81.33
2018-12-09T18:47:45.060Z,81.60
2018-12-09T18:50:15.207Z,81.67
2018-12-09T18:52:45.426Z,81.35
2018-12-09T18:55:15.531Z,81.55
2018-12-09T18:57:45.767Z,81.01
2018-12-09T19:00:15.949Z,81.30
2018-12-09T19:02:46.122Z,81.07
2018-12-09T19:05:16.238Z,81.10
2018-12-09T19:07:46.423Z,81.75
2018-12-09T19:10:16.536Z,82.18
2018-12-09T19:12:47.887Z,82.41
2018-12-09T19:15:18.069Z,82.88
2018-12-09T19:17:48.193Z,82.89
2018-12-09T19:20:18.264Z,83.46
2018-12-09T19:22:49.485Z,85.15
2018-12-09T19:25:19.590Z,85.24
2018-12-09T19:27:50.872Z,85.62
2018-12-09T19:30:20.967Z,84.99
2018-12-09T19:32:51.254Z,85.21
2018-12-09T19:35:21.367Z,84.31
2018-12-09T19:37:51.563Z,83.91
2018-12-09T19:40:21.663Z,83.86
2018-12-09T19:42:51.865Z,84.54
2018-12-09T19:45:22.010Z,83.65
2018-12-09T19:47:52.185Z,82.89
2018-12-09T19:50:22.271Z,83.42
2018-12-09T19:52:52.450Z,83.18
2018-12-09T19:55:22.786Z,82.89
2018-12-09T19:57:53.207Z,85.13
2018-12-09T20:00:23.482Z,82.83
2018-12-09T20:02:53.691Z,82.60
2018-12-09T20:05:23.950Z,82.96
2018-12-09T20:07:54.130Z,82.57
2018-12-09T20:10:24.212Z,82.60
2018-12-09T20:12:54.397Z,82.91
2018-12-09T20:15:24.474Z,83.75
2018-12-09T20:17:54.621Z,83.38
2018-12-09T20:20:24.707Z,83.54
2018-12-09T20:22:55.202Z,84.19
2018-12-09T20:25:25.309Z,84.10
2018-12-09T20:27:55.446Z,83.70
2018-12-09T20:30:25.630Z,84.44
2018-12-09T20:32:55.773Z,83.99
2018-12-09T20:35:25.905Z,83.45
2018-12-09T20:37:55.996Z,83.59
2018-12-09T20:40:26.171Z,83.29
2018-12-09T20:42:56.280Z,83.41
2018-12-09T20:45:27.350Z,84.04
2018-12-09T20:48:01.281Z,83.56
2018-12-09T20:50:31.691Z,83.63
2018-12-09T20:53:01.795Z,83.31
2018-12-09T20:55:31.919Z,83.78
2018-12-09T20:58:02.019Z,84.18
2018-12-09T21:00:33.087Z,83.65
2018-12-09T21:03:03.236Z,84.09
2018-12-09T21:05:33.439Z,83.84
2018-12-09T21:08:03.677Z,84.08
2018-12-09T21:10:33.755Z,84.27
2018-12-09T21:13:03.951Z,84.18
2018-12-09T21:15:34.293Z,84.38
2018-12-09T21:18:04.539Z,84.58
2018-12-09T21:20:34.732Z,84.47
2018-12-09T21:23:04.975Z,84.04
2018-12-09T21:25:35.204Z,84.78
2018-12-09T21:28:05.423Z,84.64
2018-12-09T21:30:50.768Z,86.58
2018-12-09T21:33:21.012Z,83.49
2018-12-09T21:35:51.358Z,83.49
2018-12-09T21:38:21.639Z,85.40
2018-12-09T21:40:51.942Z,84.86
2018-12-09T21:43:22.215Z,85.20
2018-12-09T21:45:52.496Z,84.66
2018-12-09T21:48:22.829Z,84.05
2018-12-09T21:50:53.083Z,83.80
2018-12-09T21:53:23.685Z,82.05
2018-12-09T21:55:54.012Z,81.61
2018-12-09T21:58:25.483Z,81.66
2018-12-09T22:00:56.940Z,81.49
2018-12-09T22:03:27.363Z,82.17
2018-12-09T22:05:57.718Z,82.32
2018-12-09T22:08:27.918Z,82.44
2018-12-09T22:10:58.082Z,82.26
2018-12-09T22:13:28.446Z,82.84
2018-12-09T22:15:58.778Z,81.87
2018-12-09T22:18:29.149Z,82.64
2018-12-09T22:20:59.354Z,82.69
2018-12-09T22:23:29.512Z,81.97
2018-12-09T22:26:00.289Z,82.24
2018-12-09T22:28:30.419Z,82.72
2018-12-09T22:31:00.626Z,82.65
2018-12-09T22:33:30.806Z,82.90
2018-12-09T22:36:01.057Z,83.19
2018-12-09T22:38:31.268Z,84.11
2018-12-09T22:41:01.486Z,83.66
2018-12-09T22:43:31.721Z,83.96
2018-12-09T22:46:06.306Z,84.72
2018-12-09T22:48:36.563Z,83.65
2018-12-09T22:51:06.814Z,80.79
2018-12-09T22:53:37.014Z,79.38
2018-12-09T22:56:07.308Z,78.32
2018-12-09T22:58:37.626Z,78.57
2018-12-09T23:01:13.045Z,78.89
2018-12-09T23:03:43.379Z,78.52
2018-12-09T23:06:13.534Z,79.91
2018-12-09T23:08:43.747Z,79.10
2018-12-09T23:11:13.989Z,79.21
2018-12-09T23:13:44.163Z,79.45
2018-12-09T23:16:14.401Z,79.55
2018-12-09T23:18:44.705Z,79.27
2018-12-09T23:21:15.078Z,79.06
2018-12-09T23:23:45.346Z,78.74
2018-12-09T23:26:15.711Z,78.98
2018-12-09T23:28:45.836Z,80.00
2018-12-09T23:31:15.968Z,79.08
2018-12-09T23:33:46.151Z,79.86
2018-12-09T23:36:16.325Z,80.40
2018-12-09T23:38:46.545Z,80.96
2018-12-09T23:41:16.667Z,80.93
2018-12-09T23:43:46.806Z,80.42
2018-12-09T23:46:16.979Z,80.57
2018-12-09T23:48:47.225Z,80.91
2018-12-09T23:51:17.305Z,80.42
2018-12-09T23:53:47.532Z,80.32
2018-12-09T23:56:17.650Z,80.29
2018-12-09T23:58:47.827Z,80.66
